PWSweather.com
Personal Weather Stations
Station Observations

NjegusiYU

Lat: 42.43746, Lon: 18.822765

Elevation: 856

Station Type: Davis Vantage Vue

http://pljusak.com/njegusi/index.html

Latest ConditionsUpdated 7:00:00 AM GMT+01:01 Thursday, Oct 18, 2018
Currently Today's Max Today's Min Today's Average
Temperature 34.2°F1.2°C 37.8°F3.2°C 32.5°F0.3°C 34.6°F1.4°C
Dew Point 33.7°F0.9°C 37.3°F2.9°C 32.0°F0.0°C 34.0°F1.1°C
Winds Calm Calm Calm -Calm - - Calm Calm
Wind Gusts -- 1.0 mph1.6 kmh - -
Humidity 98% 98% 97% 98%
Pressure 27.19 in920.8 mb 27.20 in921.1 mb 27.18 in920.4 mb -
Hour Temp Dew Point Humidity Winds Wind Gusts Pressure Precip Precip Rate Daily Precip Total
07:00 AM 34.2°F1.2°C 33.7°F0.9°C 98% Calm Calm -- 27.19 in920.8 mb 0.00 in0.0 mm 0.00 in0.0 mm 0.00 in0.0 mm
06:50 AM 33.4°F0.8°C 32.9°F0.5°C 98% Calm Calm 1.0 mph1.6 kmh 27.18 in920.4 mb 0.00 in0.0 mm 0.00 in0.0 mm 0.00 in0.0 mm
06:40 AM 33.9°F1.1°C 33.4°F0.8°C 98% Calm Calm -- 27.18 in920.4 mb 0.00 in0.0 mm 0.00 in0.0 mm 0.00 in0.0 mm
06:30 AM 33.6°F0.9°C 33.1°F0.6°C 98% Calm Calm 1.0 mph1.6 kmh 27.18 in920.4 mb 0.00 in0.0 mm 0.00 in0.0 mm 0.00 in0.0 mm
06:20 AM 32.8°F0.4°C 32.3°F0.2°C 98% Calm Calm -- 27.18 in920.4 mb 0.00 in0.0 mm 0.00 in0.0 mm 0.00 in0.0 mm
06:10 AM 32.6°F0.3°C 32.1°F0.1°C 98% Calm Calm -- 27.18 in920.4 mb 0.00 in0.0 mm 0.00 in0.0 mm 0.00 in0.0 mm
06:00 AM 32.7°F0.4°C 32.2°F0.1°C 98% Calm Calm -- 27.18 in920.4 mb 0.00 in0.0 mm 0.00 in0.0 mm 0.00 in0.0 mm
05:50 AM 32.6°F0.3°C 32.1°F0.1°C 98% Calm Calm 1.0 mph1.6 kmh 27.18 in920.4 mb 0.00 in0.0 mm 0.00 in0.0 mm 0.00 in0.0 mm
05:40 AM 33.1°F0.6°C 32.6°F0.3°C 98% Calm Calm 1.0 mph1.6 kmh 27.18 in920.4 mb 0.00 in0.0 mm 0.00 in0.0 mm 0.00 in0.0 mm
05:30 AM 32.7°F0.4°C 32.2°F0.1°C 98% Calm Calm -- 27.18 in920.4 mb 0.00 in0.0 mm 0.00 in0.0 mm 0.00 in0.0 mm
05:20 AM 32.5°F0.3°C 32.0°F0.0°C 98% Calm Calm -- 27.18 in920.4 mb 0.00 in0.0 mm 0.00 in0.0 mm 0.00 in0.0 mm
05:10 AM 32.8°F0.4°C 32.3°F0.2°C 98% Calm Calm -- 27.18 in920.4 mb 0.00 in0.0 mm 0.00 in0.0 mm 0.00 in0.0 mm
05:00 AM 32.9°F0.5°C 32.4°F0.2°C 98% Calm Calm -- 27.18 in920.4 mb 0.00 in0.0 mm 0.00 in0.0 mm 0.00 in0.0 mm
04:50 AM 33.1°F0.6°C 32.6°F0.3°C 98% Calm Calm -- 27.18 in920.4 mb 0.00 in0.0 mm 0.00 in0.0 mm 0.00 in0.0 mm
04:40 AM 33.4°F0.8°C 32.9°F0.5°C 98% Calm Calm 1.0 mph1.6 kmh 27.18 in920.4 mb 0.00 in0.0 mm 0.00 in0.0 mm 0.00 in0.0 mm
04:30 AM 33.5°F0.8°C 33.0°F0.6°C 98% Calm Calm -- 27.18 in920.4 mb 0.00 in0.0 mm 0.00 in0.0 mm 0.00 in0.0 mm
04:20 AM 33.9°F1.1°C 33.4°F0.8°C 98% Calm Calm -- 27.18 in920.4 mb 0.00 in0.0 mm 0.00 in0.0 mm 0.00 in0.0 mm
04:10 AM 34.2°F1.2°C 33.7°F0.9°C 98% Calm Calm -- 27.18 in920.4 mb 0.00 in0.0 mm 0.00 in0.0 mm 0.00 in0.0 mm
04:00 AM 33.8°F1.0°C 33.3°F0.7°C 98% Calm Calm -- 27.18 in920.4 mb 0.00 in0.0 mm 0.00 in0.0 mm 0.00 in0.0 mm
03:50 AM 33.4°F0.8°C 32.6°F0.3°C 97% Calm Calm -- 27.18 in920.4 mb 0.00 in0.0 mm 0.00 in0.0 mm 0.00 in0.0 mm
03:40 AM 33.8°F1.0°C 33.0°F0.6°C 97% Calm Calm -- 27.18 in920.4 mb 0.00 in0.0 mm 0.00 in0.0 mm 0.00 in0.0 mm
03:30 AM 34.2°F1.2°C 33.7°F0.9°C 98% Calm Calm 1.0 mph1.6 kmh 27.18 in920.4 mb 0.00 in0.0 mm 0.00 in0.0 mm 0.00 in0.0 mm
03:20 AM 34.0°F1.1°C 33.2°F0.7°C 97% Calm Calm 1.0 mph1.6 kmh 27.18 in920.4 mb 0.00 in0.0 mm 0.00 in0.0 mm 0.00 in0.0 mm
03:10 AM 34.6°F1.4°C 34.1°F1.2°C 98% Calm Calm -- 27.18 in920.4 mb 0.00 in0.0 mm 0.00 in0.0 mm 0.00 in0.0 mm
03:00 AM 34.3°F1.3°C 33.5°F0.8°C 97% Calm Calm -- 27.19 in920.8 mb 0.00 in0.0 mm 0.00 in0.0 mm 0.00 in0.0 mm
02:50 AM 34.9°F1.6°C 34.1°F1.2°C 97% Calm Calm -- 27.19 in920.8 mb 0.00 in0.0 mm 0.00 in0.0 mm 0.00 in0.0 mm
02:40 AM 35.7°F2.1°C 35.2°F1.8°C 98% Calm Calm -- 27.19 in920.8 mb 0.00 in0.0 mm 0.00 in0.0 mm 0.00 in0.0 mm
02:30 AM 35.1°F1.7°C 34.6°F1.4°C 98% Calm Calm -- 27.19 in920.8 mb 0.00 in0.0 mm 0.00 in0.0 mm 0.00 in0.0 mm
02:20 AM 35.1°F1.7°C 34.6°F1.4°C 98% Calm Calm -- 27.19 in920.8 mb 0.00 in0.0 mm 0.00 in0.0 mm 0.00 in0.0 mm
02:10 AM 35.4°F1.9°C 34.9°F1.6°C 98% Calm Calm -- 27.19 in920.8 mb 0.00 in0.0 mm 0.00 in0.0 mm 0.00 in0.0 mm
02:00 AM 35.2°F1.8°C 34.4°F1.3°C 97% Calm Calm -- 27.19 in920.8 mb 0.00 in0.0 mm 0.00 in0.0 mm 0.00 in0.0 mm
01:50 AM 35.1°F1.7°C 34.3°F1.3°C 97% Calm Calm -- 27.20 in921.1 mb 0.00 in0.0 mm 0.00 in0.0 mm 0.00 in0.0 mm
01:40 AM 35.5°F1.9°C 34.7°F1.5°C 97% Calm Calm -- 27.20 in921.1 mb 0.00 in0.0 mm 0.00 in0.0 mm 0.00 in0.0 mm
01:30 AM 36.3°F2.4°C 35.8°F2.1°C 98% Calm Calm -- 27.20 in921.1 mb 0.00 in0.0 mm 0.00 in0.0 mm 0.00 in0.0 mm
01:20 AM 36.3°F2.4°C 35.5°F1.9°C 97% Calm Calm -- 27.20 in921.1 mb 0.00 in0.0 mm 0.00 in0.0 mm 0.00 in0.0 mm
01:10 AM 36.0°F2.2°C 35.2°F1.8°C 97% Calm Calm -- 27.20 in921.1 mb 0.00 in0.0 mm 0.00 in0.0 mm 0.00 in0.0 mm
01:00 AM 36.1°F2.3°C 35.3°F1.8°C 97% Calm Calm -- 27.20 in921.1 mb 0.00 in0.0 mm 0.00 in0.0 mm 0.00 in0.0 mm
12:50 AM 36.8°F2.7°C 36.0°F2.2°C 97% Calm Calm -- 27.20 in921.1 mb 0.00 in0.0 mm 0.00 in0.0 mm 0.00 in0.0 mm
12:40 AM 37.8°F3.2°C 37.3°F2.9°C 98% Calm Calm -- 27.20 in921.1 mb 0.00 in0.0 mm 0.00 in0.0 mm 0.00 in0.0 mm
12:30 AM 37.0°F2.8°C 36.2°F2.3°C 97% Calm Calm -- 27.20 in921.1 mb 0.00 in0.0 mm 0.00 in0.0 mm 0.00 in0.0 mm
12:20 AM 36.8°F2.7°C 36.0°F2.2°C 97% Calm Calm -- 27.20 in921.1 mb 0.00 in0.0 mm 0.00 in0.0 mm 0.00 in0.0 mm
12:10 AM 37.5°F3.1°C 36.7°F2.6°C 97% Calm Calm -- 27.20 in921.1 mb 0.00 in0.0 mm 0.00 in0.0 mm 0.00 in0.0 mm
12:00 AM 37.7°F3.2°C 36.9°F2.7°C 97% Calm Calm -- 27.20 in921.1 mb 0.00 in0.0 mm 0.00 in0.0 mm 0.00 in0.0 mm